Time;durP1;ratioP1;P1;durP2;ratioP2;P2;SDS_P1;SDS_P2;PMS_P1;PMS_P2;Temp;Humidity;BMP_temperature;BMP_pressure;BME280_temperature;BME280_humidity;BME280_pressure;Samples;Min_cycle;Max_cycle;Signal;HPM_P1;HPM_P2
2024/03/28 00:00:45;;;;;;;13.63;9.43;;;;;;;;;;5049211;28;20020;-72
2024/03/28 00:03:10;;;;;;;13.48;10.50;;;;;;;;;;5040141;28;20025;-73
2024/03/28 00:05:35;;;;;;;14.43;10.68;;;;;;;;;;5039790;28;20025;-72
2024/03/28 00:08:00;;;;;;;13.25;10.85;;;;;;;;;;5044881;28;20036;-73
2024/03/28 00:10:25;;;;;;;13.63;9.95;;;;;;;;;;5041168;28;20044;-73
2024/03/28 00:12:51;;;;;;;13.65;9.85;;;;;;;;;;5038098;28;20409;-73
2024/03/28 00:15:16;;;;;;;16.25;9.50;;;;;;;;;;5039999;28;20110;-72
2024/03/28 00:17:41;;;;;;;17.05;9.20;;;;;;;;;;5041892;28;20029;-72
2024/03/28 00:20:06;;;;;;;17.38;9.48;;;;;;;;;;5042017;28;20032;-72
2024/03/28 00:22:32;;;;;;;13.50;9.10;;;;;;;;;;5043595;28;20029;-73
2024/03/28 00:24:57;;;;;;;14.32;10.07;;;;;;;;;;5046399;28;20067;-73
2024/03/28 00:27:22;;;;;;;13.60;10.30;;;;;;;;;;5041785;28;20060;-73
2024/03/28 00:29:47;;;;;;;13.50;9.05;;;;;;;;;;5045501;28;20642;-73
2024/03/28 00:32:13;;;;;;;13.98;9.73;;;;;;;;;;5043178;28;20045;-73
2024/03/28 00:34:38;;;;;;;13.40;10.07;;;;;;;;;;5047258;28;20405;-72
2024/03/28 00:37:03;;;;;;;13.57;10.00;;;;;;;;;;5045457;28;20693;-73
2024/03/28 00:39:28;;;;;;;12.45;9.45;;;;;;;;;;5048506;28;20040;-73
2024/03/28 00:41:53;;;;;;;14.23;10.55;;;;;;;;;;5041641;28;20101;-73
2024/03/28 00:44:19;;;;;;;13.45;9.82;;;;;;;;;;5047362;28;20475;-72
2024/03/28 00:46:44;;;;;;;12.45;9.50;;;;;;;;;;5043968;28;20055;-72
2024/03/28 00:49:09;;;;;;;11.95;9.32;;;;;;;;;;5043745;28;20033;-72
2024/03/28 00:51:34;;;;;;;13.45;10.40;;;;;;;;;;5043888;28;20440;-72
2024/03/28 00:53:59;;;;;;;13.88;10.30;;;;;;;;;;5045509;28;20109;-72
2024/03/28 00:56:25;;;;;;;11.75;9.27;;;;;;;;;;5044867;28;20025;-72
2024/03/28 00:58:50;;;;;;;16.52;12.07;;;;;;;;;;5044305;28;20040;-72
2024/03/28 01:01:15;;;;;;;14.80;11.27;;;;;;;;;;5042072;28;20053;-73
2024/03/28 01:03:40;;;;;;;14.98;11.05;;;;;;;;;;5031618;28;20031;-73
2024/03/28 01:06:06;;;;;;;14.70;10.70;;;;;;;;;;5041881;28;20092;-72
2024/03/28 01:08:31;;;;;;;14.73;10.75;;;;;;;;;;5046251;28;20030;-72
2024/03/28 01:10:56;;;;;;;13.82;10.40;;;;;;;;;;5050661;28;20025;-72
2024/03/28 01:13:21;;;;;;;13.48;10.00;;;;;;;;;;5041257;28;20049;-73
2024/03/28 01:15:47;;;;;;;15.30;11.52;;;;;;;;;;5045094;28;20025;-72
2024/03/28 01:18:12;;;;;;;17.75;10.95;;;;;;;;;;5049425;28;20512;-73
2024/03/28 01:20:37;;;;;;;14.77;11.05;;;;;;;;;;5044677;28;20033;-73
2024/03/28 01:23:02;;;;;;;16.38;11.02;;;;;;;;;;5039998;28;20024;-73
2024/03/28 01:25:27;;;;;;;15.23;10.85;;;;;;;;;;5049755;28;20026;-73
2024/03/28 01:27:53;;;;;;;13.00;9.38;;;;;;;;;;5044317;28;20056;-72
2024/03/28 01:30:18;;;;;;;15.15;11.73;;;;;;;;;;5045367;28;20032;-72
2024/03/28 01:32:43;;;;;;;13.13;10.10;;;;;;;;;;5043902;28;20025;-73
2024/03/28 01:35:08;;;;;;;14.50;9.68;;;;;;;;;;5040573;28;20597;-73
2024/03/28 01:37:33;;;;;;;14.38;11.68;;;;;;;;;;5040826;28;20060;-72
2024/03/28 01:39:59;;;;;;;15.65;10.68;;;;;;;;;;5044399;28;20048;-73
2024/03/28 01:42:25;;;;;;;14.88;11.07;;;;;;;;;;5039901;28;20021;-73
2024/03/28 01:44:50;;;;;;;18.23;9.02;;;;;;;;;;5043863;28;20035;-73
2024/03/28 01:47:16;;;;;;;14.60;10.48;;;;;;;;;;5040104;28;20030;-73
2024/03/28 01:49:41;;;;;;;13.73;10.70;;;;;;;;;;5046472;28;20021;-73
2024/03/28 01:52:07;;;;;;;16.02;10.68;;;;;;;;;;5046126;28;20033;-72
2024/03/28 01:54:36;;;;;;;13.20;9.52;;;;;;;;;;5040118;28;20044;-73
2024/03/28 01:57:02;;;;;;;15.75;10.57;;;;;;;;;;5042741;28;20043;-72
2024/03/28 01:59:28;;;;;;;13.30;9.75;;;;;;;;;;5043644;28;20415;-72
2024/03/28 02:01:53;;;;;;;12.63;9.23;;;;;;;;;;5042615;28;20061;-73
2024/03/28 02:04:19;;;;;;;16.25;10.27;;;;;;;;;;5039755;28;20021;-73
2024/03/28 02:06:44;;;;;;;12.07;9.18;;;;;;;;;;5042137;28;20029;-73
2024/03/28 02:09:10;;;;;;;14.60;9.48;;;;;;;;;;5044947;28;20047;-72
2024/03/28 02:11:35;;;;;;;16.67;11.80;;;;;;;;;;5041121;28;20428;-73
2024/03/28 02:14:00;;;;;;;18.35;10.88;;;;;;;;;;5029912;28;20036;-73
2024/03/28 02:16:25;;;;;;;14.63;10.40;;;;;;;;;;5041876;28;20026;-72
2024/03/28 02:18:57;;;;;;;15.73;10.57;;;;;;;;;;5046675;28;20698;-73
2024/03/28 02:21:22;;;;;;;16.13;9.70;;;;;;;;;;5043971;28;20021;-73
2024/03/28 02:23:49;;;;;;;15.30;11.63;;;;;;;;;;5044401;28;20473;-73
2024/03/28 02:26:14;;;;;;;18.98;12.70;;;;;;;;;;5026934;28;20476;-73
2024/03/28 02:28:40;;;;;;;16.60;12.65;;;;;;;;;;5045935;28;20029;-73
2024/03/28 02:31:05;;;;;;;18.67;13.82;;;;;;;;;;5040261;28;20033;-72
2024/03/28 02:33:30;;;;;;;19.23;14.18;;;;;;;;;;5039286;28;20060;-73
2024/03/28 02:35:56;;;;;;;21.77;15.32;;;;;;;;;;5026988;28;20108;-73
2024/03/28 02:38:21;;;;;;;19.45;12.82;;;;;;;;;;5043716;28;20477;-73
2024/03/28 02:40:46;;;;;;;20.13;13.82;;;;;;;;;;5043086;28;20032;-73
2024/03/28 02:43:11;;;;;;;21.92;15.93;;;;;;;;;;5045501;28;20025;-73
2024/03/28 02:45:37;;;;;;;23.23;16.80;;;;;;;;;;5039113;28;20080;-72
2024/03/28 02:48:03;;;;;;;22.35;16.60;;;;;;;;;;5042686;28;20032;-73
2024/03/28 02:50:28;;;;;;;28.27;18.65;;;;;;;;;;5040292;28;20473;-73
2024/03/28 02:52:53;;;;;;;28.05;17.08;;;;;;;;;;5042650;28;20037;-72
2024/03/28 02:55:18;;;;;;;26.77;18.80;;;;;;;;;;5038937;28;20033;-73
2024/03/28 02:57:43;;;;;;;19.08;14.02;;;;;;;;;;5044824;28;20036;-73
2024/03/28 03:00:09;;;;;;;23.42;17.40;;;;;;;;;;5050541;28;20397;-72
2024/03/28 03:02:34;;;;;;;20.63;16.13;;;;;;;;;;5037257;28;20418;-72
2024/03/28 03:04:59;;;;;;;24.50;18.10;;;;;;;;;;5043218;28;20090;-72
2024/03/28 03:07:24;;;;;;;32.35;23.13;;;;;;;;;;5048157;28;20029;-72
2024/03/28 03:09:50;;;;;;;29.95;23.08;;;;;;;;;;5045242;28;20131;-73
2024/03/28 03:12:15;;;;;;;27.60;22.58;;;;;;;;;;5038745;28;20029;-72
2024/03/28 03:14:40;;;;;;;28.77;22.17;;;;;;;;;;5041706;28;20107;-73
2024/03/28 03:17:05;;;;;;;31.85;23.38;;;;;;;;;;5042093;28;20115;-72
2024/03/28 03:19:31;;;;;;;30.33;24.38;;;;;;;;;;5040602;28;20039;-73
2024/03/28 03:21:56;;;;;;;32.28;25.05;;;;;;;;;;5041985;28;20037;-72
2024/03/28 03:24:21;;;;;;;37.47;27.83;;;;;;;;;;5038754;28;20099;-72
2024/03/28 03:26:49;;;;;;;34.22;27.88;;;;;;;;;;5042475;28;20440;-72
2024/03/28 03:34:43;;;;;;;11.02;4.55;;;;;;;;;;5036228;28;20029;-72
2024/03/28 03:37:10;;;;;;;3.47;1.67;;;;;;;;;;5041468;28;20698;-72
2024/03/28 03:39:35;;;;;;;2.35;1.27;;;;;;;;;;5044016;28;20120;-72
2024/03/28 03:42:00;;;;;;;3.00;1.05;;;;;;;;;;5035881;28;20063;-72
2024/03/28 03:44:25;;;;;;;2.25;1.20;;;;;;;;;;5044741;28;20486;-72
2024/03/28 03:46:51;;;;;;;3.50;1.90;;;;;;;;;;5040340;28;20420;-72
2024/03/28 03:49:16;;;;;;;4.10;2.10;;;;;;;;;;5040742;28;20087;-72
2024/03/28 03:51:41;;;;;;;3.85;1.70;;;;;;;;;;5040295;28;20025;-72
2024/03/28 03:54:06;;;;;;;4.60;1.98;;;;;;;;;;5041674;28;20025;-73
2024/03/28 03:56:32;;;;;;;4.25;1.48;;;;;;;;;;5039718;28;20033;-73
2024/03/28 03:58:57;;;;;;;4.63;1.20;;;;;;;;;;5043528;28;20054;-73
2024/03/28 04:01:23;;;;;;;2.38;0.60;;;;;;;;;;5044598;28;20157;-73
2024/03/28 04:03:48;;;;;;;1.08;0.50;;;;;;;;;;5044054;28;20106;-72
2024/03/28 04:06:13;;;;;;;1.95;0.50;;;;;;;;;;5029514;28;20490;-72
2024/03/28 04:08:38;;;;;;;8.27;0.30;;;;;;;;;;5047613;28;20104;-73
2024/03/28 04:11:04;;;;;;;0.57;0.10;;;;;;;;;;5044350;28;20055;-72
2024/03/28 04:13:29;;;;;;;2.78;0.22;;;;;;;;;;5041889;28;20057;-72
2024/03/28 04:15:55;;;;;;;3.95;0.63;;;;;;;;;;5046712;28;20029;-73
2024/03/28 04:18:20;;;;;;;1.85;0.25;;;;;;;;;;5043456;28;20393;-72
2024/03/28 04:20:46;;;;;;;0.60;0.30;;;;;;;;;;5044970;28;20033;-72
2024/03/28 04:23:11;;;;;;;0.70;0.30;;;;;;;;;;5040229;28;20037;-72
2024/03/28 04:25:37;;;;;;;0.77;0.30;;;;;;;;;;5041180;28;20022;-73
2024/03/28 04:28:03;;;;;;;1.77;0.40;;;;;;;;;;5044035;28;20085;-72
2024/03/28 04:30:32;;;;;;;1.67;0.35;;;;;;;;;;5041837;28;20121;-72
2024/03/28 04:32:57;;;;;;;1.35;0.63;;;;;;;;;;5043161;28;20053;-72
2024/03/28 04:35:23;;;;;;;0.82;0.40;;;;;;;;;;5011051;28;1028766;-72
2024/03/28 04:37:48;;;;;;;2.65;0.55;;;;;;;;;;5042170;28;20144;-72
2024/03/28 04:40:14;;;;;;;1.88;1.00;;;;;;;;;;5044994;28;20029;-72
2024/03/28 04:42:39;;;;;;;0.95;0.80;;;;;;;;;;5044645;28;20149;-72
2024/03/28 04:45:05;;;;;;;1.77;0.95;;;;;;;;;;5048370;28;20079;-73
2024/03/28 04:47:30;;;;;;;1.88;1.20;;;;;;;;;;5045038;28;20038;-72
2024/03/28 04:49:55;;;;;;;1.52;1.00;;;;;;;;;;5046945;28;20041;-72
2024/03/28 04:52:21;;;;;;;2.13;0.82;;;;;;;;;;5047930;28;20393;-73
2024/03/28 04:54:46;;;;;;;1.65;0.57;;;;;;;;;;5047918;28;20029;-73
2024/03/28 04:57:11;;;;;;;1.23;0.30;;;;;;;;;;5044893;28;20040;-72
2024/03/28 04:59:36;;;;;;;0.70;0.40;;;;;;;;;;5044912;28;20114;-72
2024/03/28 05:02:01;;;;;;;0.73;0.40;;;;;;;;;;5043188;28;20105;-72
2024/03/28 05:04:27;;;;;;;1.35;0.70;;;;;;;;;;5040869;28;20037;-72
2024/03/28 05:06:53;;;;;;;1.00;0.60;;;;;;;;;;5025870;28;20075;-72
2024/03/28 05:09:20;;;;;;;1.13;0.63;;;;;;;;;;5044027;28;20075;-72
2024/03/28 05:11:45;;;;;;;1.40;0.77;;;;;;;;;;5043078;28;20021;-73
2024/03/28 05:14:11;;;;;;;1.23;0.70;;;;;;;;;;5042767;28;20133;-73
2024/03/28 05:16:36;;;;;;;1.67;0.80;;;;;;;;;;5046884;28;20087;-72
2024/03/28 05:19:02;;;;;;;0.80;0.50;;;;;;;;;;5043128;28;20057;-72
2024/03/28 05:21:27;;;;;;;1.00;0.50;;;;;;;;;;5030478;28;20135;-72
2024/03/28 05:23:54;;;;;;;1.30;0.70;;;;;;;;;;5043436;28;20603;-72
2024/03/28 05:26:19;;;;;;;0.90;0.60;;;;;;;;;;5043438;28;20030;-72
2024/03/28 05:28:44;;;;;;;2.53;0.70;;;;;;;;;;5026822;28;20037;-72
2024/03/28 05:31:13;;;;;;;1.50;0.73;;;;;;;;;;5040406;28;20062;-72
2024/03/28 05:33:38;;;;;;;4.10;2.35;;;;;;;;;;5044196;28;20032;-72
2024/03/28 05:36:04;;;;;;;1.13;0.68;;;;;;;;;;5043869;28;20029;-72
2024/03/28 05:38:29;;;;;;;1.65;0.70;;;;;;;;;;5029800;28;20076;-72
2024/03/28 05:40:54;;;;;;;0.82;0.47;;;;;;;;;;5037778;28;20394;-72
2024/03/28 05:43:19;;;;;;;0.90;0.52;;;;;;;;;;5044927;28;20052;-72
2024/03/28 05:45:44;;;;;;;2.33;1.15;;;;;;;;;;5047955;28;20572;-72
2024/03/28 05:48:10;;;;;;;2.22;0.70;;;;;;;;;;5049434;28;20029;-72
2024/03/28 05:50:35;;;;;;;0.75;0.43;;;;;;;;;;5040816;28;20033;-72
2024/03/28 05:53:00;;;;;;;1.08;0.50;;;;;;;;;;5044288;28;20091;-72
2024/03/28 05:55:25;;;;;;;1.17;0.60;;;;;;;;;;5045781;28;20048;-72
2024/03/28 05:57:50;;;;;;;1.02;0.45;;;;;;;;;;5047628;28;20032;-73
2024/03/28 06:00:16;;;;;;;1.52;0.70;;;;;;;;;;5047157;28;20036;-72
2024/03/28 06:02:43;;;;;;;0.98;0.50;;;;;;;;;;5028138;28;20029;-73
2024/03/28 06:05:08;;;;;;;1.85;0.57;;;;;;;;;;5048861;28;20051;-72
2024/03/28 06:07:33;;;;;;;0.65;0.40;;;;;;;;;;5043074;28;20516;-72
2024/03/28 06:09:59;;;;;;;0.88;0.43;;;;;;;;;;5045685;28;20486;-72
2024/03/28 06:12:24;;;;;;;0.95;0.57;;;;;;;;;;5039872;28;20045;-73
2024/03/28 06:14:49;;;;;;;0.60;0.40;;;;;;;;;;5044098;28;20033;-72
2024/03/28 06:17:15;;;;;;;0.82;0.43;;;;;;;;;;5041399;28;20463;-73
2024/03/28 06:19:40;;;;;;;0.70;0.40;;;;;;;;;;5041697;28;20486;-72
2024/03/28 06:22:05;;;;;;;0.82;0.40;;;;;;;;;;5042515;28;20032;-72
2024/03/28 06:24:30;;;;;;;0.85;0.40;;;;;;;;;;5043219;28;20104;-73
2024/03/28 06:26:55;;;;;;;0.88;0.20;;;;;;;;;;5045488;28;20444;-73
2024/03/28 06:29:21;;;;;;;0.65;0.40;;;;;;;;;;5039538;28;20048;-73
2024/03/28 06:31:46;;;;;;;1.10;0.20;;;;;;;;;;5039650;28;20549;-73
2024/03/28 06:34:12;;;;;;;0.43;0.20;;;;;;;;;;5045720;28;20409;-73
2024/03/28 06:36:37;;;;;;;2.05;0.30;;;;;;;;;;5045248;28;20093;-72
2024/03/28 06:39:02;;;;;;;0.60;0.40;;;;;;;;;;5046194;28;20025;-72
2024/03/28 06:41:27;;;;;;;0.90;0.40;;;;;;;;;;5044750;28;20538;-73
2024/03/28 06:43:53;;;;;;;0.70;0.28;;;;;;;;;;5049697;28;20055;-72
2024/03/28 06:46:18;;;;;;;0.95;0.30;;;;;;;;;;5046847;28;20104;-72
2024/03/28 06:48:43;;;;;;;0.20;0.20;;;;;;;;;;5046897;28;20118;-72
2024/03/28 06:51:08;;;;;;;0.30;0.10;;;;;;;;;;5046372;28;20645;-72
2024/03/28 06:53:34;;;;;;;0.30;0.10;;;;;;;;;;5042280;28;20029;-72
2024/03/28 06:55:59;;;;;;;0.38;0.20;;;;;;;;;;5042664;28;20037;-72
2024/03/28 06:58:24;;;;;;;0.35;0.13;;;;;;;;;;5048200;28;20036;-72
2024/03/28 07:00:57;;;;;;;0.88;0.30;;;;;;;;;;5049261;28;20025;-72
2024/03/28 07:03:22;;;;;;;;;;;;;;;;;;5044420;28;20029;-73
2024/03/28 07:05:47;;;;;;;0.88;0.30;;;;;;;;;;5044868;28;19912;-73
2024/03/28 07:08:12;;;;;;;1.20;0.40;;;;;;;;;;5044139;28;20280;-73
2024/03/28 07:10:38;;;;;;;0.82;0.30;;;;;;;;;;5045713;28;20064;-72
2024/03/28 07:13:04;;;;;;;1.27;0.50;;;;;;;;;;5049126;28;20029;-72
2024/03/28 07:15:29;;;;;;;1.58;0.47;;;;;;;;;;5045418;28;20041;-72
2024/03/28 07:17:54;;;;;;;1.15;0.43;;;;;;;;;;5042904;28;20122;-73
2024/03/28 07:20:20;;;;;;;0.35;0.20;;;;;;;;;;5044333;28;20017;-73
2024/03/28 07:22:45;;;;;;;0.98;0.45;;;;;;;;;;5042752;28;20418;-72
2024/03/28 07:25:11;;;;;;;1.05;0.40;;;;;;;;;;5045686;28;20036;-73
2024/03/28 07:27:36;;;;;;;0.60;0.30;;;;;;;;;;5018710;28;20040;-73
2024/03/28 07:30:03;;;;;;;0.65;0.47;;;;;;;;;;5031992;28;20111;-73
2024/03/28 07:32:28;;;;;;;1.05;0.40;;;;;;;;;;5042612;28;20465;-72
2024/03/28 07:34:53;;;;;;;1.63;0.40;;;;;;;;;;5043274;28;20040;-72
2024/03/28 07:37:18;;;;;;;1.17;0.40;;;;;;;;;;5042196;28;20507;-73
2024/03/28 07:39:44;;;;;;;0.75;0.40;;;;;;;;;;5049573;28;20132;-73
2024/03/28 07:42:09;;;;;;;1.90;0.65;;;;;;;;;;5048355;28;20033;-73
2024/03/28 07:44:34;;;;;;;0.85;0.30;;;;;;;;;;5044497;28;20043;-72
2024/03/28 07:46:59;;;;;;;0.57;0.30;;;;;;;;;;5044086;28;20032;-73
2024/03/28 07:49:26;;;;;;;0.98;0.50;;;;;;;;;;5040365;28;20078;-72
2024/03/28 07:51:51;;;;;;;0.50;0.20;;;;;;;;;;5045111;28;20029;-73
2024/03/28 07:54:17;;;;;;;0.75;0.35;;;;;;;;;;5048317;28;20048;-72
2024/03/28 07:56:42;;;;;;;2.28;0.95;;;;;;;;;;5046169;28;20020;-73
2024/03/28 07:59:07;;;;;;;1.25;0.52;;;;;;;;;;5043175;28;20524;-73
2024/03/28 08:01:32;;;;;;;1.15;0.50;;;;;;;;;;5044817;28;20382;-72
2024/03/28 08:03:58;;;;;;;2.72;0.50;;;;;;;;;;5041436;28;20434;-73
2024/03/28 08:06:23;;;;;;;1.90;0.80;;;;;;;;;;5042248;28;20029;-72
2024/03/28 08:08:49;;;;;;;1.90;0.70;;;;;;;;;;5048094;28;20486;-72
2024/03/28 08:11:14;;;;;;;1.55;0.73;;;;;;;;;;5046990;28;20512;-73
2024/03/28 08:13:40;;;;;;;2.75;0.80;;;;;;;;;;5044136;28;20021;-73
2024/03/28 08:16:06;;;;;;;2.38;0.80;;;;;;;;;;5042102;28;20390;-73
2024/03/28 08:18:31;;;;;;;2.58;0.70;;;;;;;;;;5040258;28;20528;-73
2024/03/28 08:20:57;;;;;;;3.85;1.08;;;;;;;;;;5049671;28;20029;-73
2024/03/28 08:23:22;;;;;;;1.65;0.70;;;;;;;;;;5045861;28;20025;-73
2024/03/28 08:25:48;;;;;;;1.60;0.60;;;;;;;;;;5045874;28;20025;-73
2024/03/28 08:28:15;;;;;;;1.17;0.52;;;;;;;;;;5042703;28;20519;-72
2024/03/28 08:30:40;;;;;;;1.00;0.40;;;;;;;;;;5044941;28;20044;-72
2024/03/28 08:33:05;;;;;;;2.47;0.80;;;;;;;;;;5044333;28;20441;-72
2024/03/28 08:35:40;;;;;;;1.75;0.70;;;;;;;;;;5047431;28;20386;-72
2024/03/28 08:38:07;;;;;;;2.15;0.82;;;;;;;;;;5045918;28;20094;-72
2024/03/28 08:40:32;;;;;;;1.92;0.98;;;;;;;;;;5044900;28;20457;-73
2024/03/28 08:42:58;;;;;;;2.38;1.10;;;;;;;;;;5047192;28;20037;-72
2024/03/28 08:45:23;;;;;;;2.53;1.42;;;;;;;;;;5042777;28;20125;-72
2024/03/28 08:47:48;;;;;;;2.25;1.17;;;;;;;;;;5048042;28;20236;-72
2024/03/28 08:50:13;;;;;;;2.58;1.40;;;;;;;;;;5048367;28;20499;-72
2024/03/28 08:52:39;;;;;;;2.15;1.17;;;;;;;;;;5049262;28;20557;-72
2024/03/28 08:55:05;;;;;;;2.08;1.17;;;;;;;;;;5049882;28;20044;-73
2024/03/28 08:57:30;;;;;;;2.45;1.60;;;;;;;;;;5043521;28;20025;-72
2024/03/28 08:59:56;;;;;;;2.63;1.30;;;;;;;;;;5045191;28;20025;-73
2024/03/28 09:02:21;;;;;;;3.30;1.75;;;;;;;;;;5050591;28;20161;-72
2024/03/28 09:04:47;;;;;;;2.60;1.67;;;;;;;;;;5050417;28;20032;-73
2024/03/28 09:07:14;;;;;;;3.15;1.80;;;;;;;;;;5027860;28;20040;-73
2024/03/28 09:09:39;;;;;;;3.65;1.88;;;;;;;;;;5047387;28;20163;-72
2024/03/28 09:12:04;;;;;;;3.47;1.98;;;;;;;;;;5046253;28;20111;-73
2024/03/28 09:14:30;;;;;;;3.63;2.20;;;;;;;;;;5042281;28;20037;-73
2024/03/28 09:16:55;;;;;;;3.70;2.30;;;;;;;;;;5050877;28;20028;-73
2024/03/28 09:19:21;;;;;;;3.85;2.20;;;;;;;;;;5046230;28;20029;-73
2024/03/28 09:21:46;;;;;;;6.38;2.85;;;;;;;;;;5050418;28;20562;-72
2024/03/28 09:24:12;;;;;;;4.35;2.80;;;;;;;;;;5045218;28;20028;-73
2024/03/28 09:26:37;;;;;;;5.65;3.28;;;;;;;;;;5044114;28;20152;-73
2024/03/28 09:29:03;;;;;;;3.42;2.08;;;;;;;;;;5044408;28;20512;-73
2024/03/28 09:31:28;;;;;;;4.07;2.10;;;;;;;;;;5050528;28;20047;-73
2024/03/28 09:33:53;;;;;;;3.08;1.95;;;;;;;;;;5049180;28;20033;-75
2024/03/28 09:36:19;;;;;;;3.22;1.80;;;;;;;;;;5043980;28;20150;-72
2024/03/28 09:38:45;;;;;;;4.07;2.67;;;;;;;;;;5044417;28;20036;-72
2024/03/28 09:41:25;;;;;;;4.22;2.45;;;;;;;;;;5043912;28;20032;-73
2024/03/28 09:43:55;;;;;;;4.97;2.72;;;;;;;;;;5047916;28;20555;-72
2024/03/28 09:46:20;;;;;;;7.00;2.83;;;;;;;;;;5046723;28;20420;-73
2024/03/28 09:48:46;;;;;;;4.22;2.20;;;;;;;;;;5045841;28;20060;-73
2024/03/28 09:51:11;;;;;;;5.05;2.83;;;;;;;;;;5045530;28;20615;-73
2024/03/28 09:53:38;;;;;;;3.53;2.08;;;;;;;;;;5043114;28;20044;-72
2024/03/28 09:56:03;;;;;;;5.57;2.22;;;;;;;;;;5042299;28;20029;-72
2024/03/28 09:58:28;;;;;;;3.78;1.98;;;;;;;;;;5044658;28;20048;-73
2024/03/28 10:00:55;;;;;;;4.10;1.92;;;;;;;;;;5050329;28;20017;-73
2024/03/28 10:03:20;;;;;;;5.20;2.25;;;;;;;;;;5027943;28;20040;-73
2024/03/28 10:05:45;;;;;;;4.40;2.40;;;;;;;;;;5046049;28;20025;-73
2024/03/28 10:08:11;;;;;;;5.07;2.60;;;;;;;;;;5031482;28;20531;-73
2024/03/28 10:10:37;;;;;;;4.35;2.63;;;;;;;;;;5042491;28;20466;-72
2024/03/28 10:13:07;;;;;;;5.35;2.47;;;;;;;;;;5049949;28;20045;-73
2024/03/28 10:15:32;;;;;;;3.97;2.35;;;;;;;;;;5044336;28;20038;-73
2024/03/28 10:17:58;;;;;;;3.42;2.08;;;;;;;;;;5047027;28;20397;-73
2024/03/28 10:20:24;;;;;;;4.15;2.53;;;;;;;;;;5043979;28;20490;-73
2024/03/28 10:22:52;;;;;;;2.63;1.40;;;;;;;;;;5044073;28;20463;-73
2024/03/28 10:25:23;;;;;;;2.90;1.40;;;;;;;;;;5039490;28;20429;-72
2024/03/28 10:27:49;;;;;;;4.65;2.00;;;;;;;;;;5041395;28;20032;-73
2024/03/28 10:30:20;;;;;;;3.53;1.80;;;;;;;;;;5047165;28;20564;-72
2024/03/28 10:32:46;;;;;;;3.33;1.80;;;;;;;;;;5046039;28;20025;-72
2024/03/28 10:35:11;;;;;;;4.60;2.13;;;;;;;;;;5042860;28;20567;-73
2024/03/28 10:37:37;;;;;;;3.80;2.10;;;;;;;;;;5045404;28;20032;-73
2024/03/28 10:40:02;;;;;;;4.57;1.90;;;;;;;;;;5050111;28;20131;-73
2024/03/28 10:42:29;;;;;;;3.40;1.70;;;;;;;;;;5048073;28;20032;-73
2024/03/28 10:44:59;;;;;;;3.50;1.55;;;;;;;;;;5047408;28;20035;-72
2024/03/28 10:47:25;;;;;;;2.40;1.27;;;;;;;;;;5042728;28;20039;-73
2024/03/28 10:49:59;;;;;;;3.20;1.15;;;;;;;;;;5047572;28;20094;-73
2024/03/28 10:52:40;;;;;;;3.10;1.38;;;;;;;;;;5043926;28;20052;-72
2024/03/28 10:55:05;;;;;;;3.40;1.50;;;;;;;;;;5048397;28;20516;-72
2024/03/28 10:57:32;;;;;;;3.10;1.27;;;;;;;;;;5045880;28;20037;-73
2024/03/28 10:59:58;;;;;;;3.60;1.40;;;;;;;;;;5046289;28;20032;-72
2024/03/28 11:02:27;;;;;;;5.07;1.25;;;;;;;;;;5042475;28;20030;-73
2024/03/28 11:04:53;;;;;;;3.08;1.02;;;;;;;;;;5042277;28;20025;-72
2024/03/28 11:07:18;;;;;;;3.47;1.42;;;;;;;;;;5046078;28;20036;-72
2024/03/28 11:09:44;;;;;;;1.75;0.90;;;;;;;;;;5047601;28;20044;-72
2024/03/28 11:12:09;;;;;;;2.30;1.05;;;;;;;;;;5047502;28;20033;-72
2024/03/28 11:14:34;;;;;;;3.35;1.58;;;;;;;;;;5042471;28;20119;-72
2024/03/28 11:17:03;;;;;;;2.28;1.10;;;;;;;;;;5045567;28;20051;-72
2024/03/28 11:19:28;;;;;;;3.25;1.08;;;;;;;;;;5042525;28;20498;-73
2024/03/28 11:21:54;;;;;;;2.05;0.80;;;;;;;;;;5045212;28;20163;-72
2024/03/28 11:24:19;;;;;;;1.80;0.90;;;;;;;;;;5047352;28;20029;-72
2024/03/28 11:26:52;;;;;;;1.88;0.70;;;;;;;;;;5046297;28;20595;-72
2024/03/28 11:29:22;;;;;;;2.88;0.80;;;;;;;;;;5043531;28;20106;-72
2024/03/28 11:31:54;;;;;;;1.40;0.70;;;;;;;;;;5047569;28;20421;-73
2024/03/28 11:34:24;;;;;;;1.60;0.60;;;;;;;;;;5042575;28;20029;-72
2024/03/28 11:36:51;;;;;;;3.13;0.95;;;;;;;;;;5041883;28;20032;-72
2024/03/28 11:39:17;;;;;;;2.22;1.20;;;;;;;;;;5046959;28;20087;-74
2024/03/28 11:41:42;;;;;;;1.38;0.85;;;;;;;;;;5044698;28;20029;-73
2024/03/28 11:44:07;;;;;;;2.05;0.95;;;;;;;;;;5044383;28;20397;-72
2024/03/28 11:46:32;;;;;;;3.42;0.88;;;;;;;;;;5039356;28;20053;-73
2024/03/28 11:48:59;;;;;;;5.35;0.90;;;;;;;;;;5046238;28;20108;-72
2024/03/28 11:51:24;;;;;;;2.50;0.95;;;;;;;;;;5047415;28;20055;-73
2024/03/28 11:53:49;;;;;;;2.33;1.15;;;;;;;;;;5046822;28;20537;-73
2024/03/28 11:56:21;;;;;;;2.85;1.00;;;;;;;;;;5043556;28;20560;-72
2024/03/28 11:58:46;;;;;;;2.72;1.00;;;;;;;;;;5043489;28;20108;-72
2024/03/28 12:01:11;;;;;;;2.42;0.95;;;;;;;;;;5042319;28;20116;-72
2024/03/28 12:03:36;;;;;;;3.05;0.90;;;;;;;;;;5044469;28;20493;-74
2024/03/28 12:06:02;;;;;;;1.88;0.70;;;;;;;;;;5046163;28;20370;-73
2024/03/28 12:08:28;;;;;;;2.47;1.20;;;;;;;;;;5041581;28;20038;-73
2024/03/28 12:11:00;;;;;;;2.58;1.00;;;;;;;;;;5044056;28;20032;-73
2024/03/28 12:13:25;;;;;;;;;;;;;;;;;;5041733;28;20088;-73
2024/03/28 12:15:58;;;;;;;2.42;1.20;;;;;;;;;;5042719;28;20321;-72
2024/03/28 12:18:24;;;;;;;1.80;0.70;;;;;;;;;;5040828;28;20158;-73
2024/03/28 12:20:56;;;;;;;2.88;0.70;;;;;;;;;;5042787;28;20495;-73
2024/03/28 12:23:22;;;;;;;1.77;0.55;;;;;;;;;;5046201;28;20029;-73
2024/03/28 12:25:47;;;;;;;1.38;0.40;;;;;;;;;;5047349;28;20032;-73
2024/03/28 12:28:17;;;;;;;0.98;0.40;;;;;;;;;;5045840;28;20041;-72
2024/03/28 12:30:53;;;;;;;1.38;0.50;;;;;;;;;;5047578;28;20040;-73
2024/03/28 12:33:19;;;;;;;3.15;0.50;;;;;;;;;;5048224;28;20044;-73
2024/03/28 12:35:44;;;;;;;0.90;0.40;;;;;;;;;;5048663;28;20060;-72
2024/03/28 12:38:13;;;;;;;1.35;0.40;;;;;;;;;;5049949;28;20390;-73
2024/03/28 12:40:45;;;;;;;0.75;0.30;;;;;;;;;;5045005;28;20437;-72
2024/03/28 12:43:21;;;;;;;0.45;0.30;;;;;;;;;;5045463;28;20021;-72
2024/03/28 12:45:48;;;;;;;6.60;0.50;;;;;;;;;;5051181;28;20025;-73
2024/03/28 12:48:14;;;;;;;7.40;0.80;;;;;;;;;;5047632;28;20032;-73
2024/03/28 12:50:40;;;;;;;3.88;0.30;;;;;;;;;;5047196;28;20042;-73
2024/03/28 12:53:06;;;;;;;2.10;0.60;;;;;;;;;;5047377;28;20021;-73
2024/03/28 12:55:31;;;;;;;0.90;0.30;;;;;;;;;;5043245;28;20037;-73
2024/03/28 12:57:56;;;;;;;0.63;0.20;;;;;;;;;;5048490;28;20028;-73
2024/03/28 13:00:21;;;;;;;1.00;0.30;;;;;;;;;;5051276;28;20112;-72
2024/03/28 13:02:47;;;;;;;2.25;0.45;;;;;;;;;;5048850;28;20465;-72
2024/03/28 13:05:13;;;;;;;0.80;0.40;;;;;;;;;;5044378;28;20493;-72
2024/03/28 13:07:38;;;;;;;1.17;0.43;;;;;;;;;;5049468;28;20029;-72
2024/03/28 13:10:04;;;;;;;1.30;0.30;;;;;;;;;;5044336;28;20370;-73
2024/03/28 13:12:29;;;;;;;1.17;0.50;;;;;;;;;;5050397;28;20048;-73
2024/03/28 13:14:54;;;;;;;1.55;0.40;;;;;;;;;;5050390;28;20025;-73
2024/03/28 13:17:20;;;;;;;3.95;0.60;;;;;;;;;;5047940;28;20072;-72
2024/03/28 13:19:45;;;;;;;1.65;0.40;;;;;;;;;;5046791;28;20036;-73
2024/03/28 13:22:11;;;;;;;2.00;0.40;;;;;;;;;;5049087;28;20445;-73
2024/03/28 13:24:36;;;;;;;1.58;0.40;;;;;;;;;;5044415;28;20026;-73
2024/03/28 13:27:02;;;;;;;7.50;0.63;;;;;;;;;;5049402;28;20029;-72
2024/03/28 13:29:27;;;;;;;0.85;0.43;;;;;;;;;;5036686;28;20017;-73
2024/03/28 13:31:52;;;;;;;2.10;0.50;;;;;;;;;;5047483;28;20035;-72
2024/03/28 13:34:18;;;;;;;2.22;0.30;;;;;;;;;;5046603;28;20033;-72
2024/03/28 13:36:43;;;;;;;0.30;0.10;;;;;;;;;;5045678;28;20037;-73
2024/03/28 13:39:08;;;;;;;1.33;0.50;;;;;;;;;;5048092;28;20048;-73
2024/03/28 13:41:34;;;;;;;2.03;0.38;;;;;;;;;;5047120;28;20037;-73
2024/03/28 13:43:59;;;;;;;1.38;0.40;;;;;;;;;;5025213;28;20029;-73
2024/03/28 13:46:24;;;;;;;0.90;0.40;;;;;;;;;;5043986;28;20167;-73
2024/03/28 13:48:50;;;;;;;0.40;0.22;;;;;;;;;;5046144;28;20025;-73
2024/03/28 13:51:15;;;;;;;1.00;0.40;;;;;;;;;;5041794;28;20033;-73
2024/03/28 13:53:41;;;;;;;1.15;0.50;;;;;;;;;;5047901;28;20029;-73
2024/03/28 13:56:06;;;;;;;1.42;0.47;;;;;;;;;;5034113;28;20032;-73
2024/03/28 13:58:31;;;;;;;1.40;0.32;;;;;;;;;;5047174;28;20059;-73
2024/03/28 14:00:56;;;;;;;3.35;0.52;;;;;;;;;;5046677;28;20029;-73
2024/03/28 14:03:21;;;;;;;0.90;0.50;;;;;;;;;;5045689;28;20049;-72
2024/03/28 14:05:47;;;;;;;1.50;0.43;;;;;;;;;;5033444;28;20048;-72
2024/03/28 14:08:12;;;;;;;2.10;0.50;;;;;;;;;;5044742;28;20033;-73
2024/03/28 14:10:38;;;;;;;1.92;0.60;;;;;;;;;;5048095;28;20033;-73
2024/03/28 14:13:03;;;;;;;1.83;0.50;;;;;;;;;;5049036;28;20052;-73
2024/03/28 14:15:29;;;;;;;1.73;0.60;;;;;;;;;;5044904;28;20452;-73
2024/03/28 14:17:55;;;;;;;1.88;0.80;;;;;;;;;;5046021;28;20025;-72
2024/03/28 14:20:20;;;;;;;1.27;0.57;;;;;;;;;;5041787;28;20048;-72
2024/03/28 14:22:45;;;;;;;2.50;0.50;;;;;;;;;;5051119;28;20034;-72
2024/03/28 14:25:10;;;;;;;2.97;0.65;;;;;;;;;;5049513;28;20400;-72
2024/03/28 14:27:35;;;;;;;1.45;0.70;;;;;;;;;;5045457;28;20478;-73
2024/03/28 14:30:01;;;;;;;3.58;0.57;;;;;;;;;;5046047;28;20021;-73
2024/03/28 14:32:29;;;;;;;2.20;0.30;;;;;;;;;;5010662;28;20040;-72
2024/03/28 14:34:55;;;;;;;0.55;0.30;;;;;;;;;;5044172;28;20029;-73